Time;durP1;ratioP1;P1;durP2;ratioP2;P2;SDS_P1;SDS_P2;PMS_P1;PMS_P2;Temp;Humidity;BMP_temperature;BMP_pressure;BME280_temperature;BME280_humidity;BME280_pressure;Samples;Min_cycle;Max_cycle;Signal;HPM_P1;HPM_P2
2023/04/26 05:00:20;;;;;;;;;21.67;12.33;;;;;;;;5993746;22;46333;-57
2023/04/26 05:02:45;;;;;;;;;12.00;12.00;;;;;;;;5038554;28;45830;-57
2023/04/26 05:05:10;;;;;;;;;16.67;13.67;;;;;;;;5039643;28;45253;-57
2023/04/26 05:07:35;;;;;;;;;11.33;8.67;;;;;;;;5040157;28;45242;-57
2023/04/26 05:10:01;;;;;;;;;14.67;11.67;;;;;;;;5039674;28;45377;-57
2023/04/26 05:12:26;;;;;;;;;12.67;12.67;;;;;;;;5039645;28;45275;-57
2023/04/26 05:14:52;;;;;;;;;12.67;11.33;;;;;;;;5031272;28;45323;-57
2023/04/26 05:17:17;;;;;;;;;17.00;13.67;;;;;;;;5039485;28;45444;-57
2023/04/26 05:19:42;;;;;;;;;13.33;13.33;;;;;;;;5039532;28;47267;-55
2023/04/26 05:22:07;;;;;;;;;13.33;13.00;;;;;;;;5039387;28;45469;-57
2023/04/26 05:24:33;;;;;;;;;14.33;13.00;;;;;;;;5039694;28;45312;-57
2023/04/26 05:26:58;;;;;;;;;14.33;11.33;;;;;;;;5039422;28;45516;-57
2023/04/26 05:29:27;;;;;;;;;14.67;11.00;;;;;;;;5025607;28;45944;-57
2023/04/26 05:31:52;;;;;;;;;11.67;10.33;;;;;;;;5035426;28;45491;-56
2023/04/26 05:34:17;;;;;;;;;14.00;13.33;;;;;;;;5029743;28;45443;-57
2023/04/26 05:36:43;;;;;;;;;16.33;14.33;;;;;;;;5036627;28;45400;-57
2023/04/26 05:39:08;;;;;;;;;12.00;12.00;;;;;;;;5034315;28;45378;-57
2023/04/26 05:41:33;;;;;;;;;14.67;14.67;;;;;;;;5033789;28;45386;-58
2023/04/26 05:43:59;;;;;;;;;18.00;14.00;;;;;;;;5034496;28;45403;-57
2023/04/26 05:46:24;;;;;;;;;15.33;12.67;;;;;;;;5023280;28;45307;-57
2023/04/26 05:48:49;;;;;;;;;13.67;12.00;;;;;;;;5036179;28;45499;-57
2023/04/26 05:51:14;;;;;;;;;16.00;13.67;;;;;;;;5033254;28;45599;-56
2023/04/26 05:53:40;;;;;;;;;14.00;14.00;;;;;;;;5039587;28;45541;-57
2023/04/26 05:56:06;;;;;;;;;15.67;12.67;;;;;;;;5038369;28;45550;-57
2023/04/26 05:58:32;;;;;;;;;13.00;12.00;;;;;;;;5034743;28;45437;-57
2023/04/26 06:00:57;;;;;;;;;15.67;14.00;;;;;;;;5033907;28;45197;-57
2023/04/26 06:03:23;;;;;;;;;11.33;10.67;;;;;;;;5034551;28;45487;-57
2023/04/26 06:05:48;;;;;;;;;15.33;13.00;;;;;;;;5034039;28;45411;-57
2023/04/26 06:08:13;;;;;;;;;17.67;14.00;;;;;;;;5034162;28;45550;-58
2023/04/26 06:10:38;;;;;;;;;19.33;14.67;;;;;;;;5033655;28;45567;-57
2023/04/26 06:13:04;;;;;;;;;14.00;14.00;;;;;;;;5038489;28;45385;-57
2023/04/26 06:15:30;;;;;;;;;13.33;12.67;;;;;;;;5037948;28;45464;-57
2023/04/26 06:17:55;;;;;;;;;14.67;14.00;;;;;;;;5036236;28;45344;-57
2023/04/26 06:20:21;;;;;;;;;13.00;13.00;;;;;;;;5038127;28;45353;-57
2023/04/26 06:22:46;;;;;;;;;15.67;14.33;;;;;;;;5035137;28;45425;-57
2023/04/26 06:25:11;;;;;;;;;14.67;12.33;;;;;;;;5033191;28;45344;-57
2023/04/26 06:27:38;;;;;;;;;15.00;14.00;;;;;;;;5031706;28;45405;-56
2023/04/26 06:30:03;;;;;;;;;15.67;12.33;;;;;;;;5018977;28;45291;-57
2023/04/26 06:32:29;;;;;;;;;20.00;14.33;;;;;;;;5028675;28;45488;-58
2023/04/26 06:34:54;;;;;;;;;17.67;15.00;;;;;;;;5036682;28;46673;-57
2023/04/26 06:37:20;;;;;;;;;18.33;16.00;;;;;;;;5024130;28;46383;-57
2023/04/26 06:39:45;;;;;;;;;21.00;17.67;;;;;;;;5035098;28;45401;-57
2023/04/26 06:42:10;;;;;;;;;17.33;16.00;;;;;;;;5035061;28;45309;-57
2023/04/26 06:44:35;;;;;;;;;16.00;15.00;;;;;;;;5037295;28;45303;-57
2023/04/26 06:47:00;;;;;;;;;16.33;14.00;;;;;;;;5038665;28;46271;-58
2023/04/26 06:49:26;;;;;;;;;16.33;15.33;;;;;;;;5035441;28;46001;-57
2023/04/26 06:51:51;;;;;;;;;18.33;17.33;;;;;;;;5030294;28;45427;-57
2023/04/26 06:54:17;;;;;;;;;23.00;16.33;;;;;;;;5030127;28;45427;-57
2023/04/26 06:56:42;;;;;;;;;20.00;17.33;;;;;;;;5026919;28;45296;-58
2023/04/26 06:59:07;;;;;;;;;20.75;20.75;;;;;;;;5037109;28;45632;-57
2023/04/26 07:01:33;;;;;;;;;24.00;23.33;;;;;;;;5030725;28;45454;-58
2023/04/26 07:04:00;;;;;;;;;18.00;15.00;;;;;;;;5032891;28;45380;-57
2023/04/26 07:06:26;;;;;;;;;23.33;23.33;;;;;;;;5036067;28;46387;-57
2023/04/26 07:08:51;;;;;;;;;15.67;15.00;;;;;;;;5034756;28;45914;-57
2023/04/26 07:11:16;;;;;;;;;19.33;17.33;;;;;;;;5029213;28;45855;-57
2023/04/26 07:13:41;;;;;;;;;17.00;17.00;;;;;;;;5037639;28;45490;-57
2023/04/26 07:16:06;;;;;;;;;21.67;18.67;;;;;;;;5031302;28;45634;-57
2023/04/26 07:18:32;;;;;;;;;28.00;19.00;;;;;;;;5031546;28;45355;-58
2023/04/26 07:20:57;;;;;;;;;17.67;15.33;;;;;;;;5036187;28;45346;-57
2023/04/26 07:23:22;;;;;;;;;20.00;16.67;;;;;;;;5034495;28;45472;-57
2023/04/26 07:25:47;;;;;;;;;21.00;17.67;;;;;;;;5031915;28;45571;-57
2023/04/26 07:28:12;;;;;;;;;18.67;18.67;;;;;;;;5035451;28;45470;-57
2023/04/26 07:30:38;;;;;;;;;24.33;18.33;;;;;;;;5036923;28;45367;-57
2023/04/26 07:33:03;;;;;;;;;26.00;17.67;;;;;;;;5034830;28;45414;-57
2023/04/26 07:35:28;;;;;;;;;21.33;20.67;;;;;;;;5035626;28;46087;-57
2023/04/26 07:37:53;;;;;;;;;19.67;19.33;;;;;;;;5030244;28;45299;-58
2023/04/26 07:40:21;;;;;;;;;22.33;20.00;;;;;;;;5035185;28;45454;-57
2023/04/26 07:42:46;;;;;;;;;22.33;18.33;;;;;;;;5036422;28;45514;-57
2023/04/26 07:45:11;;;;;;;;;18.67;17.67;;;;;;;;5035458;28;45507;-57
2023/04/26 07:47:37;;;;;;;;;24.00;22.33;;;;;;;;5035103;28;45375;-57
2023/04/26 07:50:02;;;;;;;;;27.00;24.67;;;;;;;;5035787;28;45203;-58
2023/04/26 07:52:27;;;;;;;;;21.67;20.00;;;;;;;;5031621;28;46183;-58
2023/04/26 07:54:52;;;;;;;;;22.00;20.33;;;;;;;;5039239;28;46441;-58
2023/04/26 07:57:17;;;;;;;;;20.00;19.00;;;;;;;;5034217;28;45537;-58
2023/04/26 07:59:43;;;;;;;;;22.00;18.67;;;;;;;;5034275;28;45741;-58
2023/04/26 08:02:08;;;;;;;;;22.33;19.33;;;;;;;;5035784;28;45579;-58
2023/04/26 08:04:33;;;;;;;;;21.67;20.00;;;;;;;;5039854;28;45515;-57
2023/04/26 08:07:00;;;;;;;;;17.67;16.67;;;;;;;;5036215;28;45468;-57
2023/04/26 08:09:26;;;;;;;;;21.00;21.00;;;;;;;;5033912;28;45509;-57
2023/04/26 08:11:51;;;;;;;;;27.00;22.33;;;;;;;;5038699;28;45407;-59
2023/04/26 08:14:16;;;;;;;;;21.00;20.33;;;;;;;;5039186;28;45470;-58
2023/04/26 08:16:42;;;;;;;;;18.00;18.00;;;;;;;;5039152;28;45649;-58
2023/04/26 08:19:08;;;;;;;;;21.67;21.33;;;;;;;;5039667;28;45667;-57
2023/04/26 08:21:33;;;;;;;;;25.00;21.33;;;;;;;;5038412;28;45298;-58
2023/04/26 08:23:58;;;;;;;;;25.67;21.67;;;;;;;;5038221;28;48060;-58
2023/04/26 08:26:23;;;;;;;;;26.33;22.67;;;;;;;;5037485;28;45375;-58
2023/04/26 08:28:48;;;;;;;;;24.00;24.00;;;;;;;;5039305;28;45321;-58
2023/04/26 08:31:14;;;;;;;;;25.33;23.33;;;;;;;;5038416;28;45319;-58
2023/04/26 08:33:39;;;;;;;;;27.67;20.33;;;;;;;;5039521;28;45307;-58
2023/04/26 08:36:04;;;;;;;;;24.33;22.67;;;;;;;;5039015;28;45386;-58
2023/04/26 08:38:31;;;;;;;;;27.67;26.33;;;;;;;;5032657;28;46516;-58
2023/04/26 08:40:57;;;;;;;;;21.67;20.67;;;;;;;;5038944;28;45403;-58
2023/04/26 08:43:23;;;;;;;;;18.33;17.00;;;;;;;;5038015;28;45617;-58
2023/04/26 08:45:49;;;;;;;;;22.33;18.33;;;;;;;;5039576;28;45584;-58
2023/04/26 08:48:16;;;;;;;;;26.00;20.00;;;;;;;;5035315;28;45468;-58
2023/04/26 08:50:43;;;;;;;;;18.00;16.33;;;;;;;;5031232;28;45455;-58
2023/04/26 08:53:09;;;;;;;;;17.00;17.00;;;;;;;;5037383;28;46061;-58
2023/04/26 08:55:35;;;;;;;;;20.67;18.00;;;;;;;;5035879;28;45400;-58
2023/04/26 08:58:01;;;;;;;;;14.67;14.67;;;;;;;;5035991;28;45374;-58
2023/04/26 09:00:26;;;;;;;;;24.00;15.67;;;;;;;;5036827;28;45441;-58
2023/04/26 09:02:52;;;;;;;;;21.00;19.67;;;;;;;;5035666;28;47569;-58
2023/04/26 09:05:22;;;;;;;;;18.33;17.67;;;;;;;;5038001;28;45313;-58
2023/04/26 09:07:48;;;;;;;;;21.67;18.33;;;;;;;;5034381;28;45542;-58
2023/04/26 09:10:18;;;;;;;;;18.00;15.33;;;;;;;;5038272;28;45540;-58
2023/04/26 09:12:44;;;;;;;;;19.33;18.33;;;;;;;;5034818;28;47408;-58
2023/04/26 09:15:09;;;;;;;;;16.67;14.67;;;;;;;;5036511;28;45444;-58
2023/04/26 09:17:36;;;;;;;;;18.00;16.67;;;;;;;;5038569;28;45533;-58
2023/04/26 09:20:15;;;;;;;;;16.33;15.00;;;;;;;;5038646;28;45404;-58
2023/04/26 09:22:41;;;;;;;;;16.00;15.00;;;;;;;;5035595;28;47495;-58
2023/04/26 09:25:06;;;;;;;;;22.00;15.67;;;;;;;;5038037;28;45236;-58
2023/04/26 09:27:36;;;;;;;;;15.33;14.33;;;;;;;;5036162;28;45388;-58
2023/04/26 09:30:05;;;;;;;;;15.33;15.33;;;;;;;;5037533;28;46728;-58
2023/04/26 09:32:42;;;;;;;;;14.00;13.00;;;;;;;;5037876;28;45596;-59
2023/04/26 09:35:07;;;;;;;;;13.67;11.33;;;;;;;;5037447;28;45391;-59
2023/04/26 09:37:32;;;;;;;;;14.33;12.67;;;;;;;;5038216;28;45507;-59
2023/04/26 09:39:58;;;;;;;;;12.67;12.67;;;;;;;;5035946;28;45467;-58
2023/04/26 09:42:23;;;;;;;;;8.67;6.67;;;;;;;;5036046;28;46224;-59
2023/04/26 09:44:48;;;;;;;;;14.00;11.67;;;;;;;;5035023;28;45479;-59
2023/04/26 09:47:13;;;;;;;;;16.00;12.00;;;;;;;;5047904;28;45708;-59
2023/04/26 09:49:47;;;;;;;;;14.33;13.00;;;;;;;;5037517;28;45472;-59
2023/04/26 09:52:12;;;;;;;;;13.33;12.33;;;;;;;;5037009;28;46382;-59
2023/04/26 09:54:38;;;;;;;;;10.67;10.00;;;;;;;;5035828;28;45365;-59
2023/04/26 09:57:03;;;;;;;;;9.33;5.33;;;;;;;;5030803;28;45331;-59
2023/04/26 09:59:38;;;;;;;;;12.33;10.00;;;;;;;;5028697;28;45458;-59
2023/04/26 10:02:03;;;;;;;;;5.00;5.00;;;;;;;;5027803;28;46413;-59
2023/04/26 10:04:30;;;;;;;;;12.33;11.00;;;;;;;;5033194;28;45382;-57
2023/04/26 10:06:56;;;;;;;;;8.33;8.33;;;;;;;;5031923;28;45425;-57
2023/04/26 10:09:21;;;;;;;;;15.33;11.67;;;;;;;;5035927;28;45414;-58
2023/04/26 10:11:46;;;;;;;;;11.67;11.67;;;;;;;;5031229;28;45494;-57
2023/04/26 10:14:12;;;;;;;;;11.00;9.67;;;;;;;;5033021;28;45324;-58
2023/04/26 10:16:38;;;;;;;;;13.67;12.00;;;;;;;;5034301;28;45409;-58
2023/04/26 10:19:03;;;;;;;;;11.33;8.67;;;;;;;;5032369;28;45668;-58
2023/04/26 10:21:32;;;;;;;;;12.00;10.33;;;;;;;;5033116;28;46583;-58
2023/04/26 10:23:58;;;;;;;;;10.75;9.00;;;;;;;;5029027;28;45243;-58
2023/04/26 10:26:42;;;;;;;;;11.67;9.00;;;;;;;;5036089;28;45389;-58
2023/04/26 10:29:07;;;;;;;;;7.33;7.00;;;;;;;;5031684;28;45367;-58
2023/04/26 10:31:51;;;;;;;;;9.67;8.00;;;;;;;;5035018;28;45695;-58
2023/04/26 10:34:17;;;;;;;;;9.67;9.67;;;;;;;;5040565;28;45333;-58
2023/04/26 10:37:01;;;;;;;;;7.00;7.00;;;;;;;;5034752;28;45373;-57
2023/04/26 10:39:27;;;;;;;;;9.67;7.67;;;;;;;;5036288;28;45350;-58
2023/04/26 10:42:12;;;;;;;;;6.00;6.00;;;;;;;;5034966;28;46853;-58
2023/04/26 10:44:41;;;;;;;;;10.33;10.33;;;;;;;;5035948;28;45812;-58
2023/04/26 10:47:19;;;;;;;;;11.33;9.67;;;;;;;;5037266;28;45403;-58
2023/04/26 10:49:47;;;;;;;;;9.67;9.00;;;;;;;;5036768;28;45605;-58
2023/04/26 10:52:14;;;;;;;;;10.00;7.33;;;;;;;;5034093;28;46223;-58
2023/04/26 10:54:52;;;;;;;;;9.67;8.00;;;;;;;;5036616;28;45511;-58
2023/04/26 10:57:17;;;;;;;;;13.67;8.67;;;;;;;;5035868;28;45444;-57
2023/04/26 11:00:09;;;;;;;;;8.00;8.00;;;;;;;;5036168;28;45465;-58
2023/04/26 11:02:55;;;;;;;;;10.00;7.00;;;;;;;;5027822;28;46906;-57
2023/04/26 11:05:32;;;;;;;;;7.33;6.67;;;;;;;;5037166;28;45449;-58
2023/04/26 11:08:24;;;;;;;;;6.33;6.33;;;;;;;;5035292;28;45362;-58
2023/04/26 11:10:51;;;;;;;;;13.00;12.00;;;;;;;;5031156;28;45680;-59
2023/04/26 11:13:16;;;;;;;;;10.67;9.00;;;;;;;;5036620;28;45365;-58
2023/04/26 11:15:42;;;;;;;;;8.33;8.00;;;;;;;;5033721;28;45358;-58
2023/04/26 11:18:07;;;;;;;;;8.00;8.00;;;;;;;;5035059;28;45416;-58
2023/04/26 11:20:32;;;;;;;;;7.00;6.00;;;;;;;;5039549;28;46306;-57
2023/04/26 11:22:58;;;;;;;;;9.00;9.00;;;;;;;;5040524;28;45827;-57
2023/04/26 11:25:24;;;;;;;;;10.67;9.00;;;;;;;;5038797;28;45865;-59
2023/04/26 11:27:49;;;;;;;;;7.33;7.00;;;;;;;;5037238;28;45370;-56
2023/04/26 11:30:17;;;;;;;;;7.67;7.67;;;;;;;;5036049;28;45452;-60
2023/04/26 11:32:44;;;;;;;;;9.33;9.00;;;;;;;;5035464;28;46298;-61
2023/04/26 11:35:10;;;;;;;;;8.67;8.67;;;;;;;;5038680;28;45559;-55
2023/04/26 11:37:35;;;;;;;;;8.33;7.33;;;;;;;;5039262;28;45519;-55
2023/04/26 11:40:00;;;;;;;;;7.00;5.67;;;;;;;;5036753;28;45724;-56
2023/04/26 11:42:26;;;;;;;;;8.00;8.00;;;;;;;;5036716;28;45845;-55
2023/04/26 11:44:52;;;;;;;;;8.00;6.67;;;;;;;;5037528;28;45851;-56
2023/04/26 11:47:17;;;;;;;;;10.33;9.33;;;;;;;;5036330;28;46252;-57
2023/04/26 11:49:43;;;;;;;;;9.67;9.00;;;;;;;;5036668;28;45544;-57
2023/04/26 11:52:09;;;;;;;;;9.00;6.67;;;;;;;;5029178;28;45411;-56
2023/04/26 11:54:36;;;;;;;;;7.67;7.67;;;;;;;;5036371;28;45325;-53
2023/04/26 11:57:12;;;;;;;;;8.33;8.33;;;;;;;;5034639;28;45456;-58
2023/04/26 11:59:37;;;;;;;;;8.00;6.00;;;;;;;;5039940;28;45583;-55
2023/04/26 12:02:05;;;;;;;;;9.00;8.00;;;;;;;;5030444;28;45298;-58
2023/04/26 12:04:31;;;;;;;;;7.67;7.00;;;;;;;;5037582;28;45905;-59
2023/04/26 12:06:56;;;;;;;;;9.00;9.00;;;;;;;;5039427;28;45795;-52
2023/04/26 12:09:30;;;;;;;;;7.33;7.00;;;;;;;;5031544;28;45702;-60
2023/04/26 12:11:58;;;;;;;;;9.33;9.00;;;;;;;;5034759;28;46345;-53
2023/04/26 12:14:29;;;;;;;;;9.33;6.67;;;;;;;;5038186;28;45414;-57
2023/04/26 12:16:54;;;;;;;;;8.67;8.67;;;;;;;;5035092;28;45501;-56
2023/04/26 12:19:22;;;;;;;;;11.00;8.33;;;;;;;;5037313;28;45510;-57
2023/04/26 12:21:49;;;;;;;;;8.00;8.00;;;;;;;;5039749;28;46579;-56
2023/04/26 12:24:24;;;;;;;;;11.33;9.00;;;;;;;;5036273;28;45752;-56
2023/04/26 12:26:50;;;;;;;;;4.33;3.00;;;;;;;;5038552;28;45659;-57
2023/04/26 12:29:15;;;;;;;;;10.33;7.33;;;;;;;;5038572;28;45359;-56
2023/04/26 12:31:40;;;;;;;;;7.00;7.00;;;;;;;;5037770;28;45524;-56
2023/04/26 12:34:05;;;;;;;;;9.00;9.00;;;;;;;;5038675;28;45393;-56
2023/04/26 12:36:31;;;;;;;;;9.33;7.00;;;;;;;;5039169;28;45367;-56
2023/04/26 12:38:56;;;;;;;;;6.33;6.33;;;;;;;;5038767;28;45585;-55
2023/04/26 12:41:22;;;;;;;;;9.67;8.67;;;;;;;;5037975;28;46256;-57
2023/04/26 12:43:47;;;;;;;;;7.67;7.00;;;;;;;;5038836;28;45395;-56
2023/04/26 12:46:12;;;;;;;;;8.67;7.67;;;;;;;;5038216;28;45492;-56
2023/04/26 12:48:37;;;;;;;;;8.67;8.00;;;;;;;;5038667;28;45575;-56
2023/04/26 12:51:03;;;;;;;;;8.33;7.33;;;;;;;;5037968;28;47275;-56
2023/04/26 12:53:28;;;;;;;;;10.67;7.00;;;;;;;;5038305;28;45495;-56
2023/04/26 12:55:53;;;;;;;;;8.00;8.00;;;;;;;;5028483;28;45440;-56
2023/04/26 12:58:18;;;;;;;;;7.67;6.33;;;;;;;;5034524;28;45522;-56
2023/04/26 13:00:43;;;;;;;;;6.33;5.00;;;;;;;;5038922;28;46222;-57
2023/04/26 13:03:10;;;;;;;;;14.33;8.00;;;;;;;;5038248;28;45620;-56
2023/04/26 13:05:35;;;;;;;;;8.33;7.33;;;;;;;;5038087;28;45792;-56
2023/04/26 13:08:00;;;;;;;;;8.33;7.33;;;;;;;;5038508;28;45845;-56
2023/04/26 13:10:26;;;;;;;;;11.00;8.00;;;;;;;;5036649;28;46220;-56
2023/04/26 13:12:52;;;;;;;;;8.00;7.00;;;;;;;;5038358;28;45540;-56
2023/04/26 13:15:18;;;;;;;;;10.00;8.67;;;;;;;;5037978;28;45476;-56
2023/04/26 13:17:44;;;;;;;;;12.33;10.00;;;;;;;;5037188;28;45438;-56
2023/04/26 13:20:09;;;;;;;;;10.67;8.00;;;;;;;;5035560;28;48473;-56
2023/04/26 13:22:34;;;;;;;;;7.00;6.00;;;;;;;;5038705;28;45407;-56
2023/04/26 13:25:00;;;;;;;;;6.33;6.33;;;;;;;;5037024;28;45423;-55
2023/04/26 13:27:25;;;;;;;;;7.67;7.67;;;;;;;;5036927;28;45433;-57
2023/04/26 13:29:51;;;;;;;;;6.00;6.00;;;;;;;;5036830;28;47575;-56
2023/04/26 13:32:16;;;;;;;;;8.00;6.00;;;;;;;;5038060;28;45363;-56
2023/04/26 13:34:44;;;;;;;;;9.00;9.00;;;;;;;;5038690;28;45333;-56
2023/04/26 13:37:10;;;;;;;;;8.00;8.00;;;;;;;;5037901;28;45499;-57
2023/04/26 13:39:35;;;;;;;;;9.67;9.67;;;;;;;;5037857;28;46806;-56
2023/04/26 13:42:00;;;;;;;;;7.00;7.00;;;;;;;;5038112;28;45481;-56
2023/04/26 13:44:27;;;;;;;;;9.00;8.00;;;;;;;;5037622;28;45427;-56
2023/04/26 13:46:53;;;;;;;;;7.67;6.00;;;;;;;;5038381;28;45480;-56
2023/04/26 13:49:21;;;;;;;;;7.67;6.00;;;;;;;;5033275;28;46653;-56
2023/04/26 13:51:46;;;;;;;;;11.00;9.67;;;;;;;;5037722;28;45445;-56
2023/04/26 13:54:11;;;;;;;;;7.67;7.00;;;;;;;;5037886;28;45369;-56
2023/04/26 13:56:36;;;;;;;;;11.33;8.33;;;;;;;;5030562;28;45386;-56
2023/04/26 13:59:04;;;;;;;;;10.33;9.00;;;;;;;;5035507;28;46059;-56
2023/04/26 14:01:29;;;;;;;;;9.67;7.67;;;;;;;;5033719;28;45469;-56
2023/04/26 14:03:55;;;;;;;;;10.00;10.00;;;;;;;;5038314;28;45444;-56
2023/04/26 14:06:20;;;;;;;;;10.00;9.00;;;;;;;;5037078;28;45282;-56
2023/04/26 14:08:45;;;;;;;;;8.00;8.00;;;;;;;;5037542;28;45443;-56
2023/04/26 14:11:11;;;;;;;;;8.67;8.67;;;;;;;;5035697;28;45973;-56
2023/04/26 14:13:39;;;;;;;;;7.00;7.00;;;;;;;;5037843;28;45430;-56
2023/04/26 14:16:05;;;;;;;;;9.00;9.00;;;;;;;;5036980;28;45412;-56
2023/04/26 14:18:30;;;;;;;;;10.67;8.00;;;;;;;;5037447;28;46033;-56
2023/04/26 14:20:55;;;;;;;;;9.33;9.33;;;;;;;;5036939;28;45593;-57
2023/04/26 14:23:21;;;;;;;;;11.00;8.00;;;;;;;;5037943;28;45393;-57
2023/04/26 14:25:50;;;;;;;;;8.00;8.00;;;;;;;;5036556;28;45416;-57
2023/04/26 14:28:15;;;;;;;;;10.00;8.00;;;;;;;;5037039;28;45654;-56
2023/04/26 14:30:41;;;;;;;;;7.00;7.00;;;;;;;;5035253;28;45417;-56
2023/04/26 14:33:06;;;;;;;;;13.00;8.33;;;;;;;;5036909;28;45449;-57
2023/04/26 14:35:31;;;;;;;;;8.33;8.33;;;;;;;;5035863;28;45370;-56
2023/04/26 14:37:56;;;;;;;;;10.00;7.33;;;;;;;;5036385;28;45521;-56
2023/04/26 14:40:22;;;;;;;;;8.33;8.00;;;;;;;;5036882;28;45446;-56
2023/04/26 14:42:47;;;;;;;;;11.33;8.33;;;;;;;;5035593;28;45496;-56
2023/04/26 14:45:12;;;;;;;;;8.67;7.67;;;;;;;;5037447;28;45404;-57
2023/04/26 14:47:38;;;;;;;;;9.00;7.00;;;;;;;;5036827;28;46283;-56
2023/04/26 14:50:03;;;;;;;;;11.00;9.00;;;;;;;;5033275;28;45482;-56
2023/04/26 14:52:30;;;;;;;;;8.33;8.33;;;;;;;;5037514;28;45505;-56
2023/04/26 14:54:56;;;;;;;;;12.67;10.00;;;;;;;;5039418;28;45471;-56
2023/04/26 14:57:21;;;;;;;;;10.33;8.00;;;;;;;;5031769;28;48062;-57
2023/04/26 14:59:46;;;;;;;;;11.67;8.33;;;;;;;;5038192;28;45338;-57
2023/04/26 15:02:12;;;;;;;;;11.33;9.00;;;;;;;;5038267;28;45493;-59
2023/04/26 15:04:37;;;;;;;;;8.33;8.33;;;;;;;;5037128;28;45847;-59
2023/04/26 15:07:03;;;;;;;;;6.67;6.33;;;;;;;;5038498;28;45693;-59
2023/04/26 15:09:28;;;;;;;;;8.00;7.00;;;;;;;;5039354;28;45517;-59
2023/04/26 15:11:53;;;;;;;;;12.00;10.67;;;;;;;;5038551;28;45476;-59
2023/04/26 15:14:19;;;;;;;;;9.00;7.67;;;;;;;;5038480;28;45505;-59
2023/04/26 15:16:44;;;;;;;;;7.67;7.67;;;;;;;;5039894;28;45472;-59
2023/04/26 15:19:09;;;;;;;;;9.33;8.00;;;;;;;;5036869;28;45429;-59
2023/04/26 15:21:35;;;;;;;;;8.00;7.00;;;;;;;;5040238;28;47134;-59
2023/04/26 15:24:01;;;;;;;;;8.33;7.33;;;;;;;;5039292;28;45489;-59
2023/04/26 15:26:29;;;;;;;;;4.67;4.67;;;;;;;;5038603;28;45631;-59
2023/04/26 15:28:55;;;;;;;;;7.33;7.33;;;;;;;;5038681;28;45597;-59
2023/04/26 15:31:20;;;;;;;;;7.00;7.00;;;;;;;;5037148;28;45485;-59
2023/04/26 15:33:45;;;;;;;;;11.00;9.00;;;;;;;;5037925;28;45624;-59
2023/04/26 15:36:11;;;;;;;;;11.33;9.67;;;;;;;;5039342;28;45627;-59
2023/04/26 15:38:36;;;;;;;;;8.00;8.00;;;;;;;;5039113;28;45386;-59
2023/04/26 15:41:01;;;;;;;;;8.67;5.33;;;;;;;;5037417;28;45286;-59
2023/04/26 15:43:27;;;;;;;;;8.00;8.00;;;;;;;;5038678;28;45612;-59
2023/04/26 15:45:52;;;;;;;;;9.33;7.67;;;;;;;;5036477;28;46579;-59
2023/04/26 15:48:17;;;;;;;;;9.00;7.00;;;;;;;;5038145;28;45348;-58
2023/04/26 15:50:43;;;;;;;;;9.00;9.00;;;;;;;;5040174;28;45367;-58
2023/04/26 15:53:08;;;;;;;;;8.00;7.00;;;;;;;;5039045;28;45201;-58
2023/04/26 15:55:33;;;;;;;;;7.33;7.33;;;;;;;;5039624;28;47149;-59
2023/04/26 15:57:58;;;;;;;;;8.33;8.33;;;;;;;;5031529;28;45603;-58
2023/04/26 16:00:25;;;;;;;;;8.33;7.00;;;;;;;;5028183;28;45450;-59
2023/04/26 16:02:50;;;;;;;;;13.33;8.67;;;;;;;;5037505;28;45485;-58
2023/04/26 16:05:16;;;;;;;;;10.33;9.00;;;;;;;;5024604;28;45593;-58
2023/04/26 16:07:41;;;;;;;;;9.00;9.00;;;;;;;;5023585;28;45770;-58
2023/04/26 16:10:08;;;;;;;;;7.00;7.00;;;;;;;;5034960;28;45353;-58
2023/04/26 16:12:35;;;;;;;;;8.33;8.33;;;;;;;;5030952;28;45484;-58
2023/04/26 16:15:00;;;;;;;;;6.33;6.33;;;;;;;;5032849;28;45535;-59
2023/04/26 16:17:25;;;;;;;;;9.33;8.67;;;;;;;;5034012;28;45436;-58
2023/04/26 16:19:51;;;;;;;;;11.67;8.67;;;;;;;;5038646;28;45220;-58
2023/04/26 16:22:16;;;;;;;;;8.00;8.00;;;;;;;;5034269;28;45298;-58
2023/04/26 16:24:41;;;;;;;;;12.00;9.00;;;;;;;;5036601;28;46844;-59
2023/04/26 16:27:07;;;;;;;;;7.00;7.00;;;;;;;;5029100;28;45512;-57
2023/04/26 16:29:32;;;;;;;;;9.00;8.00;;;;;;;;5037183;28;45373;-56
2023/04/26 16:31:57;;;;;;;;;7.33;7.00;;;;;;;;5033944;28;45386;-58
2023/04/26 16:34:23;;;;;;;;;13.00;9.33;;;;;;;;5037464;28;45330;-59
2023/04/26 16:36:48;;;;;;;;;9.67;6.00;;;;;;;;5033924;28;45428;-58
2023/04/26 16:39:14;;;;;;;;;12.00;9.00;;;;;;;;5031057;28;45268;-56
2023/04/26 16:41:40;;;;;;;;;8.00;5.00;;;;;;;;5036624;28;45317;-57
2023/04/26 16:44:05;;;;;;;;;9.00;6.00;;;;;;;;5036929;28;45558;-57
2023/04/26 16:46:31;;;;;;;;;12.33;8.00;;;;;;;;5042482;28;45461;-57
2023/04/26 16:48:56;;;;;;;;;8.00;8.00;;;;;;;;5035771;28;45724;-57
2023/04/26 16:51:22;;;;;;;;;10.00;7.67;;;;;;;;5039225;28;45781;-57
2023/04/26 16:53:47;;;;;;;;;7.33;7.33;;;;;;;;5032732;28;45663;-57
2023/04/26 16:56:12;;;;;;;;;9.33;7.67;;;;;;;;5029016;28;45462;-57
2023/04/26 16:58:37;;;;;;;;;8.00;6.33;;;;;;;;5039862;28;45358;-57
2023/04/26 17:01:03;;;;;;;;;12.33;10.00;;;;;;;;5039197;28;45374;-57
2023/04/26 17:03:28;;;;;;;;;10.00;10.00;;;;;;;;5034491;28;46533;-57
2023/04/26 17:05:54;;;;;;;;;8.33;8.33;;;;;;;;5035009;28;45662;-57
2023/04/26 17:08:19;;;;;;;;;8.00;8.00;;;;;;;;5039527;28;45302;-57
2023/04/26 17:10:45;;;;;;;;;11.33;11.33;;;;;;;;5030950;28;45450;-57
2023/04/26 17:13:11;;;;;;;;;11.67;9.00;;;;;;;;5032406;28;45562;-56
2023/04/26 17:15:37;;;;;;;;;9.33;7.67;;;;;;;;5035261;28;45540;-59
2023/04/26 17:18:05;;;;;;;;;11.00;7.00;;;;;;;;5038259;28;45774;-58
2023/04/26 17:20:31;;;;;;;;;12.00;7.67;;;;;;;;5039703;28;45362;-58
2023/04/26 17:22:57;;;;;;;;;8.33;7.00;;;;;;;;5032850;28;47555;-58
2023/04/26 17:25:23;;;;;;;;;14.67;12.33;;;;;;;;5036836;28;45379;-57
2023/04/26 17:27:48;;;;;;;;;10.00;9.00;;;;;;;;5035603;28;45430;-57
2023/04/26 17:30:14;;;;;;;;;3.67;3.67;;;;;;;;5034544;28;45449;-57
2023/04/26 17:32:39;;;;;;;;;10.33;9.00;;;;;;;;5037297;28;47244;-58
2023/04/26 17:35:05;;;;;;;;;8.00;8.00;;;;;;;;5034586;28;45233;-57
2023/04/26 17:37:30;;;;;;;;;9.67;9.33;;;;;;;;5038020;28;45332;-57
2023/04/26 17:39:55;;;;;;;;;9.67;9.67;;;;;;;;5034386;28;45215;-57
2023/04/26 17:42:20;;;;;;;;;12.00;8.00;;;;;;;;5038327;28;46551;-57
2023/04/26 17:44:46;;;;;;;;;12.00;12.00;;;;;;;;5037355;28;45569;-57
2023/04/26 17:47:11;;;;;;;;;11.00;9.67;;;;;;;;5029011;28;45406;-57
2023/04/26 17:49:36;;;;;;;;;13.67;12.00;;;;;;;;5034458;28;45268;-57
2023/04/26 17:52:01;;;;;;;;;12.00;12.00;;;;;;;;5034594;28;45533;-57
2023/04/26 17:54:27;;;;;;;;;13.33;12.33;;;;;;;;5036851;28;45454;-57
2023/04/26 17:56:52;;;;;;;;;11.33;10.00;;;;;;;;5034362;28;45273;-57
2023/04/26 17:59:17;;;;;;;;;7.00;7.00;;;;;;;;5036761;28;45266;-57
2023/04/26 18:01:42;;;;;;;;;13.33;12.33;;;;;;;;5035425;28;48664;-57
2023/04/26 18:04:07;;;;;;;;;12.00;11.33;;;;;;;;5036895;28;46027;-57
2023/04/26 18:06:32;;;;;;;;;13.00;10.67;;;;;;;;5035674;28;45339;-57
2023/04/26 18:08:58;;;;;;;;;11.67;11.67;;;;;;;;5030805;28;45291;-57
2023/04/26 18:11:23;;;;;;;;;14.00;11.33;;;;;;;;5027844;28;46450;-57
2023/04/26 18:13:48;;;;;;;;;10.33;9.33;;;;;;;;5037930;28;45155;-57
2023/04/26 18:16:15;;;;;;;;;8.00;8.00;;;;;;;;5036805;28;45317;-57
2023/04/26 18:18:41;;;;;;;;;10.00;9.00;;;;;;;;5034309;28;45552;-57
2023/04/26 18:21:06;;;;;;;;;12.33;9.67;;;;;;;;5035850;28;45397;-57
2023/04/26 18:23:32;;;;;;;;;11.33;9.33;;;;;;;;5038436;28;45619;-57
2023/04/26 18:25:57;;;;;;;;;11.67;9.00;;;;;;;;5038110;28;45638;-58
2023/04/26 18:28:22;;;;;;;;;11.67;11.67;;;;;;;;5037901;28;45370;-57
2023/04/26 18:30:47;;;;;;;;;12.67;8.67;;;;;;;;5035471;28;46273;-57
2023/04/26 18:33:12;;;;;;;;;12.00;10.67;;;;;;;;5032038;28;45401;-57
2023/04/26 18:35:37;;;;;;;;;11.00;11.00;;;;;;;;5025954;28;45355;-57
2023/04/26 18:38:03;;;;;;;;;10.00;10.00;;;;;;;;5036081;28;45470;-57
2023/04/26 18:40:28;;;;;;;;;11.67;10.00;;;;;;;;5034523;28;46390;-57
2023/04/26 18:42:53;;;;;;;;;11.67;10.67;;;;;;;;5034722;28;45304;-57
2023/04/26 18:45:18;;;;;;;;;15.00;13.33;;;;;;;;5033883;28;45551;-57
2023/04/26 18:47:44;;;;;;;;;14.67;13.00;;;;;;;;5030901;28;45429;-57
2023/04/26 18:50:09;;;;;;;;;14.33;12.33;;;;;;;;5033291;28;46514;-57
2023/04/26 18:52:34;;;;;;;;;10.00;9.33;;;;;;;;5037106;28;45278;-57
2023/04/26 18:54:59;;;;;;;;;9.00;8.00;;;;;;;;5036377;28;45267;-57
2023/04/26 18:57:25;;;;;;;;;13.67;12.67;;;;;;;;5028795;28;45273;-57
2023/04/26 18:59:50;;;;;;;;;14.00;14.00;;;;;;;;5036335;28;46330;-57
2023/04/26 19:02:16;;;;;;;;;13.00;10.00;;;;;;;;5031042;28;45435;-57
2023/04/26 19:04:41;;;;;;;;;13.00;10.67;;;;;;;;5037946;28;45291;-57
2023/04/26 19:07:06;;;;;;;;;13.33;12.67;;;;;;;;5035229;28;45525;-57
2023/04/26 19:09:32;;;;;;;;;13.00;12.33;;;;;;;;5031307;28;46489;-57
2023/04/26 19:11:58;;;;;;;;;11.33;11.33;;;;;;;;5037882;28;45457;-58
2023/04/26 19:14:23;;;;;;;;;9.67;8.67;;;;;;;;5036463;28;45569;-57
2023/04/26 19:16:48;;;;;;;;;8.67;8.67;;;;;;;;5038033;28;45400;-58
2023/04/26 19:19:13;;;;;;;;;10.67;10.67;;;;;;;;5037273;28;45599;-57
2023/04/26 19:21:38;;;;;;;;;10.67;10.33;;;;;;;;5037786;28;45501;-58